Wetterdaten: Woche 19.01.15 - 25.01.15 (KW4)
Datum Zeit Temp. I. Temp. A. Boden 5 cm Feuchte A. Sonne Luftdruck Regen Wind Sonnenschein Zeit Regen
19.01.2015 00:00 22,8 C 1,9 C 2,4 C 88 % 0 % 1016 hPa 0,0 l/m 0,0 km/h (0 Bft) 0,00 h 0,00 h
19.01.2015 01:00 22,7 C 1,8 C 2,4 C 89 % 0 % 1016 hPa 0,0 l/m 0,0 km/h (0 Bft) 0,00 h 0,00 h
19.01.2015 02:00 22,6 C 1,7 C 2,3 C 89 % 0 % 1016 hPa 0,0 l/m 0,0 km/h (0 Bft) 0,00 h 0,00 h
19.01.2015 03:00 22,6 C 1,7 C 2,3 C 90 % 0 % 1015 hPa 0,0 l/m 0,0 km/h (0 Bft) 0,00 h 0,00 h
19.01.2015 04:00 22,5 C 1,7 C 2,2 C 91 % 0 % 1015 hPa 0,0 l/m 0,0 km/h (0 Bft) 0,00 h 0,00 h
19.01.2015 05:00 22,5 C 1,8 C 2,3 C 91 % 0 % 1015 hPa 0,0 l/m 1,4 km/h (1 Bft) 0,00 h 0,00 h
19.01.2015 06:00 22,5 C 1,8 C 2,3 C 92 % 0 % 1015 hPa 0,0 l/m 2,3 km/h (1 Bft) 0,00 h 0,00 h
19.01.2015 07:00 21,6 C 1,8 C 2,3 C 92 % 0 % 1015 hPa 0,0 l/m 1,7 km/h (1 Bft) 0,00 h 0,00 h
19.01.2015 08:00 21,3 C 1,9 C 2,4 C 92 % 4 % 1015 hPa 0,0 l/m 3,1 km/h (1 Bft) 0,00 h 0,00 h
19.01.2015 09:00 21,6 C 2,2 C 2,6 C 92 % 13 % 1015 hPa 0,0 l/m 5,1 km/h (1 Bft) 0,00 h 0,00 h
19.01.2015 10:00 21,9 C 2,8 C 3,0 C 88 % 21 % 1015 hPa 0,0 l/m 10,5 km/h (2 Bft) 0,00 h 0,00 h
19.01.2015 11:00 20,2 C 3,6 C 3,6 C 83 % 41 % 1015 hPa 0,0 l/m 13,3 km/h (3 Bft) 0,20 h 0,00 h
19.01.2015 12:00 21,6 C 4,0 C 3,9 C 73 % 29 % 1015 hPa 0,0 l/m 11,6 km/h (2 Bft) 0,05 h 0,00 h
19.01.2015 13:00 21,2 C 3,7 C 4,0 C 70 % 23 % 1014 hPa 0,0 l/m 12,3 km/h (3 Bft) 0,00 h 0,00 h
19.01.2015 14:00 21,7 C 4,4 C 4,2 C 65 % 39 % 1013 hPa 0,0 l/m 11,7 km/h (2 Bft) 0,20 h 0,00 h
19.01.2015 15:00 21,7 C 3,5 C 3,9 C 65 % 11 % 1014 hPa 0,0 l/m 6,5 km/h (2 Bft) 0,00 h 0,00 h
19.01.2015 16:00 21,9 C 2,6 C 3,3 C 66 % 3 % 1014 hPa 0,0 l/m 6,4 km/h (2 Bft) 0,00 h 0,00 h
19.01.2015 17:00 22,2 C 1,2 C 2,4 C 69 % 0 % 1014 hPa 0,0 l/m 4,3 km/h (1 Bft) 0,00 h 0,00 h
19.01.2015 18:00 22,8 C 0,3 C 1,5 C 72 % 0 % 1013 hPa 0,0 l/m 0,5 km/h (0 Bft) 0,00 h 0,00 h
19.01.2015 19:00 22,9 C -0,4 C 0,9 C 75 % 0 % 1014 hPa 0,0 l/m 0,1 km/h (0 Bft) 0,00 h 0,00 h
19.01.2015 20:00 22,9 C -0,3 C 0,7 C 77 % 0 % 1013 hPa 0,0 l/m 1,4 km/h (1 Bft) 0,00 h 0,00 h
19.01.2015 21:00 22,7 C -0,6 C 0,6 C 78 % 0 % 1013 hPa 0,0 l/m 0,4 km/h (0 Bft) 0,00 h 0,00 h
19.01.2015 22:00 22,6 C -1,0 C 0,3 C 80 % 0 % 1013 hPa 0,0 l/m 0,3 km/h (0 Bft) 0,00 h 0,00 h
19.01.2015 23:00 22,9 C -1,7 C -0,1 C 82 % 0 % 1013 hPa 0,0 l/m 0,0 km/h (0 Bft) 0,00 h 0,00 h
20.01.2015 00:00 22,8 C -1,9 C -0,2 C 83 % 0 % 1013 hPa 0,0 l/m 0,3 km/h (0 Bft) 0,00 h 0,00 h
20.01.2015 01:00 22,7 C -2,1 C -0,6 C 85 % 0 % 1012 hPa 0,0 l/m 0,1 km/h (0 Bft) 0,00 h 0,00 h
20.01.2015 02:00 22,6 C -2,3 C -0,6 C 86 % 0 % 1012 hPa 0,0 l/m 0,6 km/h (0 Bft) 0,00 h 0,00 h
20.01.2015 03:00 22,5 C -1,9 C -0,6 C 87 % 0 % 1012 hPa 0,0 l/m 0,0 km/h (0 Bft) 0,00 h 0,00 h
20.01.2015 04:00 22,5 C -1,4 C -0,3 C 88 % 0 % 1012 hPa 0,0 l/m 0,1 km/h (0 Bft) 0,00 h 0,00 h
20.01.2015 05:00 22,4 C -0,8 C 0,0 C 88 % 0 % 1012 hPa 0,0 l/m 1,3 km/h (1 Bft) 0,00 h 0,00 h
20.01.2015 06:00 22,4 C -0,3 C 0,3 C 88 % 0 % 1012 hPa 0,0 l/m 7,0 km/h (2 Bft) 0,00 h 0,00 h
20.01.2015 07:00 21,4 C -0,0 C 0,5 C 88 % 0 % 1012 hPa 0,0 l/m 6,3 km/h (2 Bft) 0,00 h 0,00 h
20.01.2015 08:00 22,5 C 0,0 C 0,7 C 89 % 2 % 1012 hPa 0,0 l/m 2,8 km/h (1 Bft) 0,00 h 0,00 h
20.01.2015 09:00 22,7 C 0,2 C 0,8 C 89 % 6 % 1012 hPa 0,0 l/m 0,1 km/h (0 Bft) 0,00 h 0,00 h
20.01.2015 10:00 22,6 C 0,6 C 1,0 C 88 % 16 % 1012 hPa 0,0 l/m 1,1 km/h (1 Bft) 0,00 h 0,00 h
20.01.2015 11:00 22,6 C 1,2 C 1,3 C 85 % 20 % 1012 hPa 0,0 l/m 2,2 km/h (1 Bft) 0,00 h 0,00 h
20.01.2015 12:00 22,4 C 1,2 C 1,5 C 82 % 16 % 1012 hPa 0,0 l/m 0,7 km/h (0 Bft) 0,00 h 0,00 h
20.01.2015 13:00 22,4 C 1,3 C 1,6 C 80 % 18 % 1012 hPa 0,0 l/m 0,3 km/h (0 Bft) 0,00 h 0,00 h
20.01.2015 14:00 22,4 C 1,4 C 1,7 C 78 % 13 % 1012 hPa 0,0 l/m 1,7 km/h (1 Bft) 0,00 h 0,00 h
20.01.2015 15:00 22,4 C 1,3 C 1,7 C 78 % 7 % 1012 hPa 0,0 l/m 1,1 km/h (1 Bft) 0,00 h 0,00 h
20.01.2015 16:00 22,1 C 1,2 C 1,7 C 78 % 2 % 1013 hPa 0,0 l/m 0,7 km/h (0 Bft) 0,00 h 0,00 h
20.01.2015 17:00 22,2 C 1,0 C 1,6 C 78 % 0 % 1013 hPa 0,0 l/m 0,0 km/h (0 Bft) 0,00 h 0,00 h
20.01.2015 18:00 21,6 C 0,9 C 1,6 C 79 % 0 % 1013 hPa 0,0 l/m 0,4 km/h (0 Bft) 0,00 h 0,00 h
20.01.2015 19:00 22,5 C 0,8 C 1,5 C 79 % 0 % 1014 hPa 0,0 l/m 3,5 km/h (1 Bft) 0,00 h 0,00 h
20.01.2015 20:00 23,0 C 0,7 C 1,4 C 79 % 0 % 1014 hPa 0,0 l/m 1,0 km/h (0 Bft) 0,00 h 0,00 h
20.01.2015 21:00 22,9 C 0,7 C 1,4 C 79 % 0 % 1014 hPa 0,0 l/m 0,1 km/h (0 Bft) 0,00 h 0,00 h
20.01.2015 22:00 22,8 C 0,7 C 1,4 C 79 % 0 % 1014 hPa 0,0 l/m 0,3 km/h (0 Bft) 0,00 h 0,00 h
20.01.2015 23:00 22,8 C 0,6 C 1,4 C 80 % 0 % 1014 hPa 0,0 l/m 0,8 km/h (0 Bft) 0,00 h 0,00 h
21.01.2015 00:00 22,7 C 0,5 C 1,4 C 81 % 0 % 1014 hPa 0,0 l/m 0,0 km/h (0 Bft) 0,00 h 0,00 h
21.01.2015 01:00 22,6 C 0,5 C 1,3 C 82 % 0 % 1014 hPa 0,0 l/m 0,0 km/h (0 Bft) 0,00 h 0,00 h
21.01.2015 02:00 22,5 C 0,5 C 1,2 C 83 % 0 % 1014 hPa 0,0 l/m 0,0 km/h (0 Bft) 0,00 h 0,00 h
21.01.2015 03:00 22,5 C 0,5 C 1,2 C 84 % 0 % 1014 hPa 0,0 l/m 0,2 km/h (0 Bft) 0,00 h 0,00 h
21.01.2015 04:00 22,5 C 0,5 C 1,2 C 84 % 0 % 1014 hPa 0,0 l/m 2,1 km/h (1 Bft) 0,00 h 0,00 h
21.01.2015 05:00 22,4 C 0,5 C 1,2 C 84 % 0 % 1014 hPa 0,0 l/m 3,1 km/h (1 Bft) 0,00 h 0,00 h
21.01.2015 06:00 22,4 C 0,5 C 1,2 C 83 % 0 % 1014 hPa 0,0 l/m 5,4 km/h (1 Bft) 0,00 h 0,00 h
21.01.2015 07:00 21,5 C 0,3 C 1,0 C 80 % 0 % 1015 hPa 0,0 l/m 13,4 km/h (3 Bft) 0,00 h 0,00 h
21.01.2015 08:00 22,1 C 0,3 C 1,1 C 78 % 3 % 1015 hPa 0,0 l/m 7,8 km/h (2 Bft) 0,00 h 0,00 h
21.01.2015 09:00 22,1 C 0,7 C 1,2 C 75 % 10 % 1015 hPa 0,0 l/m 9,9 km/h (2 Bft) 0,00 h 0,00 h
21.01.2015 10:00 22,1 C 1,1 C 1,5 C 72 % 18 % 1015 hPa 0,0 l/m 12,3 km/h (3 Bft) 0,00 h 0,00 h
21.01.2015 11:00 22,1 C 1,5 C 1,9 C 67 % 27 % 1015 hPa 0,0 l/m 16,6 km/h (3 Bft) 0,00 h 0,00 h
21.01.2015 12:00 22,1 C 1,8 C 2,1 C 63 % 32 % 1014 hPa 0,0 l/m 17,8 km/h (3 Bft) 0,00 h 0,00 h
21.01.2015 13:00 22,2 C 1,5 C 2,1 C 63 % 24 % 1014 hPa 0,0 l/m 16,9 km/h (3 Bft) 0,00 h 0,00 h
21.01.2015 14:00 22,2 C 1,5 C 2,0 C 63 % 21 % 1013 hPa 0,0 l/m 14,4 km/h (3 Bft) 0,00 h 0,00 h
21.01.2015 15:00 22,1 C 1,5 C 2,0 C 64 % 13 % 1013 hPa 0,0 l/m 13,9 km/h (3 Bft) 0,00 h 0,00 h
21.01.2015 16:00 22,1 C 1,3 C 1,9 C 66 % 4 % 1013 hPa 0,0 l/m 8,3 km/h (2 Bft) 0,05 h 0,00 h
21.01.2015 17:00 22,2 C 1,2 C 1,7 C 69 % 0 % 1012 hPa 0,0 l/m 7,6 km/h (2 Bft) 0,00 h 0,00 h
21.01.2015 18:00 22,1 C 1,5 C 1,8 C 69 % 0 % 1012 hPa 0,0 l/m 12,2 km/h (2 Bft) 0,00 h 0,00 h
21.01.2015 19:00 22,1 C 1,7 C 1,9 C 68 % 0 % 1013 hPa 0,0 l/m 14,7 km/h (3 Bft) 0,00 h 0,00 h
21.01.2015 20:00 22,1 C 1,8 C 2,0 C 68 % 0 % 1012 hPa 0,0 l/m 12,6 km/h (3 Bft) 0,00 h 0,00 h
21.01.2015 21:00 22,0 C 1,9 C 2,1 C 69 % 0 % 1012 hPa 0,0 l/m 16,2 km/h (3 Bft) 0,00 h 0,00 h
21.01.2015 22:00 22,1 C 2,0 C 2,1 C 69 % 0 % 1012 hPa 0,0 l/m 12,3 km/h (3 Bft) 0,00 h 0,00 h
21.01.2015 23:00 22,0 C 1,7 C 1,9 C 70 % 0 % 1012 hPa 0,0 l/m 4,4 km/h (1 Bft) 0,00 h 0,00 h
22.01.2015 00:00 22,0 C 0,3 C 1,2 C 71 % 0 % 1012 hPa 0,0 l/m 0,1 km/h (0 Bft) 0,00 h 0,00 h
22.01.2015 01:00 21,9 C -0,7 C 0,6 C 75 % 0 % 1012 hPa 0,0 l/m 0,0 km/h (0 Bft) 0,00 h 0,00 h
22.01.2015 02:00 21,8 C -1,2 C 0,3 C 77 % 0 % 1012 hPa 0,0 l/m 0,1 km/h (0 Bft) 0,00 h 0,00 h
22.01.2015 03:00 21,8 C -1,5 C -0,1 C 79 % 0 % 1012 hPa 0,0 l/m 0,0 km/h (0 Bft) 0,00 h 0,00 h
22.01.2015 04:00 21,8 C -1,8 C -0,3 C 81 % 0 % 1011 hPa 0,0 l/m 0,2 km/h (0 Bft) 0,00 h 0,00 h
22.01.2015 05:00 21,8 C -1,5 C -0,4 C 83 % 0 % 1011 hPa 0,0 l/m 0,6 km/h (0 Bft) 0,00 h 0,00 h
22.01.2015 06:00 21,9 C -1,2 C -0,4 C 84 % 0 % 1011 hPa 0,0 l/m 0,0 km/h (0 Bft) 0,00 h 0,00 h
22.01.2015 07:00 21,1 C -0,3 C 0,3 C 86 % 0 % 1011 hPa 0,0 l/m 1,4 km/h (1 Bft) 0,00 h 0,00 h
22.01.2015 08:00 21,7 C 0,1 C 0,5 C 88 % 5 % 1012 hPa 0,0 l/m 0,1 km/h (0 Bft) 0,00 h 0,00 h
22.01.2015 09:00 21,8 C 1,0 C 1,1 C 89 % 19 % 1012 hPa 0,0 l/m 0,4 km/h (0 Bft) 0,00 h 0,00 h
22.01.2015 10:00 21,9 C 2,2 C 1,9 C 87 % 31 % 1013 hPa 0,0 l/m 1,1 km/h (1 Bft) 0,00 h 0,00 h
22.01.2015 11:00 21,9 C 2,5 C 2,4 C 84 % 31 % 1013 hPa 0,0 l/m 2,5 km/h (1 Bft) 0,00 h 0,00 h
22.01.2015 12:00 22,0 C 3,1 C 2,9 C 82 % 35 % 1013 hPa 0,0 l/m 3,4 km/h (1 Bft) 0,15 h 0,00 h
22.01.2015 13:00 22,0 C 3,7 C 3,6 C 78 % 53 % 1012 hPa 0,0 l/m 6,1 km/h (2 Bft) 0,35 h 0,00 h
22.01.2015 14:00 22,0 C 3,9 C 3,8 C 77 % 32 % 1012 hPa 0,0 l/m 1,7 km/h (1 Bft) 0,00 h 0,00 h
22.01.2015 15:00 22,0 C 3,1 C 3,4 C 81 % 12 % 1013 hPa 0,0 l/m 2,8 km/h (1 Bft) 0,00 h 0,00 h
22.01.2015 16:00 22,0 C 3,1 C 3,3 C 81 % 2 % 1014 hPa 0,0 l/m 1,2 km/h (1 Bft) 0,00 h 0,00 h
22.01.2015 17:00 22,2 C 3,0 C 3,2 C 82 % 0 % 1014 hPa 0,0 l/m 0,0 km/h (0 Bft) 0,00 h 0,00 h
22.01.2015 18:00 22,1 C 2,8 C 3,1 C 83 % 0 % 1015 hPa 0,0 l/m 0,6 km/h (0 Bft) 0,00 h 0,00 h
22.01.2015 19:00 22,0 C 2,5 C 3,0 C 84 % 0 % 1016 hPa 0,0 l/m 1,1 km/h (0 Bft) 0,00 h 0,00 h
22.01.2015 20:00 22,0 C 2,4 C 2,8 C 86 % 0 % 1016 hPa 0,3 l/m 0,3 km/h (0 Bft) 0,00 h 0,05 h
22.01.2015 21:00 22,0 C 2,1 C 2,6 C 88 % 0 % 1017 hPa 0,0 l/m 5,9 km/h (2 Bft) 0,00 h 0,00 h
22.01.2015 22:00 22,1 C 1,7 C 2,3 C 88 % 0 % 1017 hPa 0,0 l/m 9,3 km/h (2 Bft) 0,00 h 0,00 h
22.01.2015 23:00 22,0 C 1,4 C 2,1 C 89 % 0 % 1017 hPa 0,0 l/m 6,7 km/h (2 Bft) 0,00 h 0,00 h
23.01.2015 00:00 22,0 C 1,3 C 2,0 C 90 % 0 % 1017 hPa 0,0 l/m 2,5 km/h (1 Bft) 0,00 h 0,00 h
23.01.2015 01:00 22,0 C 1,2 C 1,9 C 89 % 0 % 1018 hPa 0,0 l/m 0,3 km/h (0 Bft) 0,00 h 0,00 h
23.01.2015 02:00 21,9 C 1,2 C 1,9 C 90 % 0 % 1018 hPa 0,0 l/m 1,6 km/h (1 Bft) 0,00 h 0,00 h
23.01.2015 03:00 21,8 C 1,2 C 1,9 C 90 % 0 % 1018 hPa 0,0 l/m 0,3 km/h (0 Bft) 0,00 h 0,00 h
23.01.2015 04:00 21,8 C 1,1 C 1,8 C 90 % 0 % 1018 hPa 0,0 l/m 3,2 km/h (1 Bft) 0,00 h 0,00 h
23.01.2015 05:00 21,9 C 1,2 C 1,8 C 91 % 0 % 1018 hPa 0,0 l/m 1,9 km/h (1 Bft) 0,00 h 0,00 h
23.01.2015 06:00 21,9 C 1,3 C 1,8 C 91 % 0 % 1019 hPa 0,0 l/m 2,4 km/h (1 Bft) 0,00 h 0,00 h
23.01.2015 07:00 21,4 C 1,4 C 1,9 C 91 % 0 % 1019 hPa 0,0 l/m 0,2 km/h (0 Bft) 0,00 h 0,00 h
23.01.2015 08:00 21,8 C 1,4 C 1,9 C 91 % 3 % 1020 hPa 0,0 l/m 0,0 km/h (0 Bft) 0,00 h 0,00 h
23.01.2015 09:00 21,8 C 1,6 C 2,0 C 91 % 6 % 1020 hPa 0,0 l/m 1,7 km/h (1 Bft) 0,00 h 0,00 h
23.01.2015 10:00 21,9 C 1,8 C 2,1 C 91 % 9 % 1021 hPa 0,0 l/m 0,6 km/h (0 Bft) 0,00 h 0,00 h
23.01.2015 11:00 21,9 C 2,0 C 2,3 C 90 % 9 % 1021 hPa 0,3 l/m 1,4 km/h (1 Bft) 0,00 h 0,05 h
23.01.2015 12:00 21,9 C 2,1 C 2,3 C 90 % 11 % 1021 hPa 0,0 l/m 5,2 km/h (1 Bft) 0,00 h 0,00 h
23.01.2015 13:00 21,8 C 2,1 C 2,4 C 91 % 7 % 1020 hPa 0,0 l/m 8,4 km/h (2 Bft) 0,00 h 0,00 h
23.01.2015 14:00 20,9 C 2,2 C 2,4 C 92 % 5 % 1021 hPa 0,0 l/m 4,8 km/h (1 Bft) 0,00 h 0,00 h
23.01.2015 15:00 21,3 C 2,3 C 2,5 C 92 % 3 % 1021 hPa 0,3 l/m 4,3 km/h (1 Bft) 0,00 h 0,05 h
23.01.2015 16:00 21,7 C 2,1 C 2,5 C 93 % 1 % 1022 hPa 0,3 l/m 0,7 km/h (0 Bft) 0,00 h 0,05 h
23.01.2015 17:00 21,8 C 2,0 C 2,4 C 94 % 0 % 1022 hPa 0,7 l/m 3,2 km/h (1 Bft) 0,00 h 0,10 h
23.01.2015 18:00 22,0 C 1,8 C 2,3 C 94 % 0 % 1022 hPa 0,3 l/m 4,2 km/h (1 Bft) 0,00 h 0,05 h
23.01.2015 19:00 22,0 C 1,8 C 2,2 C 94 % 0 % 1023 hPa 0,0 l/m 4,7 km/h (1 Bft) 0,00 h 0,00 h
23.01.2015 20:00 22,0 C 1,6 C 2,1 C 94 % 0 % 1023 hPa 0,0 l/m 5,0 km/h (1 Bft) 0,00 h 0,00 h
23.01.2015 21:00 22,1 C 1,4 C 2,0 C 94 % 0 % 1023 hPa 0,3 l/m 2,4 km/h (1 Bft) 0,00 h 0,05 h
23.01.2015 22:00 22,1 C 1,1 C 1,8 C 94 % 0 % 1023 hPa 0,3 l/m 2,0 km/h (1 Bft) 0,00 h 0,05 h
23.01.2015 23:00 22,0 C 0,8 C 1,6 C 94 % 0 % 1023 hPa 0,0 l/m 0,3 km/h (0 Bft) 0,00 h 0,00 h
24.01.2015 00:00 21,9 C 0,6 C 1,4 C 94 % 0 % 1023 hPa 0,0 l/m 0,0 km/h (0 Bft) 0,00 h 0,00 h
24.01.2015 01:00 21,8 C 0,6 C 1,4 C 95 % 0 % 1023 hPa 0,3 l/m 1,3 km/h (1 Bft) 0,00 h 0,05 h
24.01.2015 02:00 21,8 C 0,6 C 1,3 C 95 % 0 % 1023 hPa 0,0 l/m 3,0 km/h (1 Bft) 0,00 h 0,00 h
24.01.2015 03:00 21,8 C 0,5 C 1,3 C 95 % 0 % 1023 hPa 0,0 l/m 2,3 km/h (1 Bft) 0,00 h 0,00 h
24.01.2015 04:00 21,8 C 0,4 C 1,2 C 95 % 0 % 1022 hPa 0,0 l/m 2,0 km/h (1 Bft) 0,00 h 0,00 h
24.01.2015 05:00 21,8 C 0,4 C 1,2 C 95 % 0 % 1022 hPa 0,0 l/m 0,9 km/h (0 Bft) 0,00 h 0,00 h
24.01.2015 06:00 21,8 C 0,4 C 1,1 C 95 % 0 % 1022 hPa 0,0 l/m 3,5 km/h (1 Bft) 0,00 h 0,00 h
24.01.2015 07:00 21,8 C 0,4 C 1,0 C 95 % 0 % 1022 hPa 0,0 l/m 2,5 km/h (1 Bft) 0,00 h 0,00 h
24.01.2015 08:00 21,8 C 0,4 C 1,0 C 95 % 3 % 1022 hPa 0,0 l/m 4,5 km/h (1 Bft) 0,00 h 0,00 h
24.01.2015 09:00 21,8 C 0,6 C 1,0 C 94 % 8 % 1022 hPa 0,3 l/m 6,9 km/h (2 Bft) 0,00 h 0,05 h
24.01.2015 10:00 21,8 C 0,7 C 1,2 C 94 % 8 % 1022 hPa 0,0 l/m 5,1 km/h (1 Bft) 0,00 h 0,00 h
24.01.2015 11:00 22,0 C 0,8 C 1,2 C 93 % 9 % 1021 hPa 0,3 l/m 8,3 km/h (2 Bft) 0,00 h 0,05 h
24.01.2015 12:00 21,9 C 0,7 C 1,2 C 91 % 7 % 1021 hPa 0,0 l/m 10,3 km/h (2 Bft) 0,00 h 0,00 h
24.01.2015 13:00 22,2 C 0,7 C 1,1 C 86 % 8 % 1020 hPa 0,3 l/m 10,2 km/h (2 Bft) 0,00 h 0,05 h
24.01.2015 14:00 22,2 C 0,6 C 1,1 C 85 % 7 % 1020 hPa 0,0 l/m 10,3 km/h (2 Bft) 0,00 h 0,00 h
24.01.2015 15:00 22,0 C 0,4 C 0,9 C 84 % 3 % 1020 hPa 0,0 l/m 11,0 km/h (2 Bft) 0,00 h 0,00 h
24.01.2015 16:00 22,4 C 0,2 C 0,8 C 84 % 1 % 1020 hPa 0,0 l/m 10,8 km/h (2 Bft) 0,00 h 0,00 h
24.01.2015 17:00 22,6 C 0,1 C 0,7 C 84 % 0 % 1020 hPa 0,0 l/m 10,4 km/h (2 Bft) 0,00 h 0,00 h
24.01.2015 18:00 22,6 C 0,1 C 0,6 C 83 % 0 % 1021 hPa 0,0 l/m 10,2 km/h (2 Bft) 0,00 h 0,00 h
24.01.2015 19:00 22,7 C 0,1 C 0,6 C 83 % 0 % 1021 hPa 0,0 l/m 9,5 km/h (2 Bft) 0,00 h 0,00 h
24.01.2015 20:00 22,6 C 0,2 C 0,6 C 81 % 0 % 1022 hPa 0,0 l/m 11,5 km/h (2 Bft) 0,00 h 0,00 h
24.01.2015 21:00 22,6 C 0,2 C 0,7 C 79 % 0 % 1022 hPa 0,0 l/m 8,9 km/h (2 Bft) 0,00 h 0,00 h
24.01.2015 22:00 22,6 C 0,2 C 0,7 C 78 % 0 % 1022 hPa 0,0 l/m 9,3 km/h (2 Bft) 0,00 h 0,00 h
24.01.2015 23:00 22,5 C 0,2 C 0,6 C 75 % 0 % 1023 hPa 0,0 l/m 9,0 km/h (2 Bft) 0,00 h 0,00 h
25.01.2015 00:00 22,4 C 0,2 C 0,6 C 72 % 0 % 1023 hPa 0,0 l/m 9,9 km/h (2 Bft) 0,00 h 0,00 h
25.01.2015 01:00 22,4 C 0,1 C 0,6 C 71 % 0 % 1023 hPa 0,0 l/m 5,5 km/h (1 Bft) 0,00 h 0,00 h
25.01.2015 02:00 22,3 C 0,1 C 0,6 C 71 % 0 % 1023 hPa 0,0 l/m 5,3 km/h (1 Bft) 0,00 h 0,00 h
25.01.2015 03:00 22,2 C 0,1 C 0,6 C 73 % 0 % 1024 hPa 0,0 l/m 7,1 km/h (2 Bft) 0,00 h 0,00 h
25.01.2015 04:00 22,2 C 0,0 C 0,5 C 77 % 0 % 1024 hPa 0,0 l/m 7,5 km/h (2 Bft) 0,00 h 0,00 h
25.01.2015 05:00 22,2 C 0,0 C 0,5 C 81 % 0 % 1024 hPa 0,0 l/m 7,6 km/h (2 Bft) 0,00 h 0,00 h
25.01.2015 06:00 22,2 C 0,1 C 0,6 C 82 % 0 % 1024 hPa 0,0 l/m 7,4 km/h (2 Bft) 0,00 h 0,00 h
25.01.2015 07:00 22,2 C 0,1 C 0,6 C 82 % 0 % 1025 hPa 0,0 l/m 8,7 km/h (2 Bft) 0,00 h 0,00 h
25.01.2015 08:00 22,2 C 0,3 C 0,7 C 82 % 4 % 1026 hPa 0,0 l/m 10,1 km/h (2 Bft) 0,00 h 0,00 h
25.01.2015 09:00 22,2 C 0,8 C 1,1 C 82 % 13 % 1026 hPa 0,0 l/m 13,1 km/h (3 Bft) 0,00 h 0,00 h
25.01.2015 10:00 22,3 C 1,5 C 1,5 C 79 % 23 % 1027 hPa 0,0 l/m 14,1 km/h (3 Bft) 0,00 h 0,00 h
25.01.2015 11:00 21,4 C 2,3 C 2,2 C 75 % 50 % 1027 hPa 0,0 l/m 16,9 km/h (3 Bft) 0,30 h 0,00 h
25.01.2015 12:00 22,0 C 2,8 C 2,6 C 69 % 35 % 1027 hPa 0,0 l/m 16,6 km/h (3 Bft) 0,05 h 0,00 h
25.01.2015 13:00 22,2 C 2,5 C 2,7 C 66 % 24 % 1027 hPa 0,0 l/m 18,6 km/h (3 Bft) 0,00 h 0,00 h
25.01.2015 14:00 22,2 C 2,4 C 2,6 C 65 % 16 % 1027 hPa 0,0 l/m 14,5 km/h (3 Bft) 0,00 h 0,00 h
25.01.2015 15:00 21,7 C 2,5 C 2,6 C 64 % 11 % 1027 hPa 0,0 l/m 14,8 km/h (3 Bft) 0,00 h 0,00 h
25.01.2015 16:00 22,0 C 2,1 C 2,4 C 66 % 2 % 1028 hPa 0,0 l/m 14,9 km/h (3 Bft) 0,00 h 0,00 h
25.01.2015 17:00 22,3 C 1,7 C 2,1 C 67 % 0 % 1028 hPa 0,0 l/m 13,4 km/h (3 Bft) 0,00 h 0,00 h
25.01.2015 18:00 23,3 C 1,4 C 1,8 C 68 % 0 % 1028 hPa 0,0 l/m 10,7 km/h (2 Bft) 0,00 h 0,00 h
25.01.2015 19:00 23,2 C 1,1 C 1,6 C 69 % 0 % 1028 hPa 0,0 l/m 15,7 km/h (3 Bft) 0,00 h 0,00 h
25.01.2015 20:00 23,1 C 0,7 C 1,3 C 75 % 0 % 1029 hPa 0,0 l/m 8,9 km/h (2 Bft) 0,00 h 0,00 h
25.01.2015 21:00 22,9 C 0,6 C 1,2 C 77 % 0 % 1029 hPa 0,0 l/m 9,1 km/h (2 Bft) 0,00 h 0,00 h
25.01.2015 22:00 22,8 C 0,7 C 1,2 C 78 % 0 % 1029 hPa 0,0 l/m 4,7 km/h (1 Bft) 0,00 h 0,00 h
25.01.2015 23:00 22,8 C 0,7 C 1,2 C 79 % 0 % 1028 hPa 0,0 l/m 5,9 km/h (2 Bft) 0,00 h 0,00 h
Min-Datum _ 19.01.15 20.01.15 20.01.15 21.01.15 - 20.01.15 - 19.01.15 - -
_ Min-Zeit 11:10 01:58 01:10 12:32 - 05:11 - 00:02 - -
Minimum _ 18,4 C -2,4 C -1,1 C 62 % - 1011 hPa - 0,0 km/h (0 Bft) - -
Max-Datum _ 25.01.15 19.01.15 19.01.15 24.01.15 25.01.15 25.01.15 23.01.15 25.01.15 19.01.15 22.01.15
_ Max-Zeit 18:35 14:13 14:07 06:59 11:56 20:14 17:00 12:38 11:49 20:09
Maximum _ 23,4 C 5,2 C 4,8 C 96 % 83 % 1029 hPa 0,7 l/m 26,0 km/h
NW (4 Bft)
0,05 h 0,05 h
Durchschnitt _ 22,1 C 1,0 C 1,6 C 82 % #1:21 h 1017 hPa #4,4 l/m 5,2 km/h (1 Bft) #1:21 h #39 min.